SAZS

San Carlos De Bariloche Airport

San Carlos de Bariloche, Argentina
TAF SAZS 210500Z 2106/2206 16005KT CAVOK TX13/2118Z TNM04/2112Z BECMG 2114/2116 29005KT
Issued Valid From Valid To
Aug-21 @ 05:00 UTC
(13 hours ago)
Aug-21 @ 06:00 UTC
(12 hours ago)
Aug-22 @ 06:00 UTC
(in 12 hours)
Expired Click to View Aug-21 @ 06:00 to Aug-21 @ 14:00
TAF SAZS 210500Z 2106/2206 16005KT CAVOK TX13/2118Z TNM04/2112Z
Wind Visibility Clouds
160° at 5 knots 10,000+ meters
  • No significant clouds
Becoming Aug-21 @ 14:00 to Aug-22 @ 06:00
BECMG 2114/2116 29005KT
Wind Visibility Clouds
290° at 5 knots 10,000+ meters
  • No significant clouds
TAF SAZS 210500Z 2106/2206 16005KT CAVOK TX13/2118Z TNM04/2112Z BECMG 2114/2116 29005KT
Issued Aug-21 @ 05:00 UTC
(13 hours ago)
Valid From Aug-21 @ 06:00 UTC
(12 hours ago)
Valid To Aug-22 @ 06:00 UTC
(in 12 hours)
Aug-21 @ 06:00 - Aug-21 @ 14:00
Wind Visibility
160° at 5 knots 10,000+ meters
Clouds
  • No significant clouds
Becoming Aug-21 @ 14:00 - Aug-22 @ 06:00
Wind Visibility
290° at 5 knots 10,000+ meters
Clouds
  • No significant clouds